Nubieber, CA (96068)

3:15 PM PDT on September 20, 2014 (GMT -0700)
RAWS GRASSHOPPER CA US | Change Station
CLOSE
Current Station
Personal Weather Station
Location: Termo, CA
Elevation: 6158 ft
Nearby Weather Stations

Elev 6158 ft 40.78 °N, 120.78 °W | Updated 28 minutes ago

Clear
Clear
80 °F
Feels Like 79 °F
N
6
Wind Variable Wind from South
Gusts 14.0 mph

Today
High -- | Low -- °F
--% Chance of Precip.
Yesterday
High -- | Low -- °F
Precip. -- in
6:50 AM 7:04 PM
Waning Crescent, 10% visible
Pressure 29.90 in
Visibility 10.0 miles
Clouds Clear
Heat Index 79 °F
Dew Point 34 °F
Humidity 19%
Rainfall 0.00 in
Snow Depth 0 in , 0 in , 0 in
UV 6 out of 12
Pollen 6.40 out of 12
Air Quality Not available.
Flu Activity Not available.
METAR KAAT 202155Z AUTO 16008KT 150V210 10SM CLR 32/02 A3003 RMK AO2 SLP123 T03170017

More Conditions Fewer Conditions

Pressure 29.90 in
Visibility 10.0 miles
Clouds Clear
Heat Index 79 °F
Dew Point 34 °F
Humidity 19%
Rainfall 0.00 in
Snow Depth 0 in , 0 in , 0 in
UV 6 out of 12
Pollen 6.40 out of 12
Air Quality Not available.
Flu Activity Not available.
METAR KAAT 202155Z AUTO 16008KT 150V210 10SM CLR 32/02 A3003 RMK AO2 SLP123 T03170017

More Conditions Fewer Conditions

10-Day Weather Forecast

Almanac

Astronomy

Sep. 20, 2014 Rise Set
Actual Time 6:50 AM PDT 7:04 PM PDT
Civil Twilight 6:22 AM PDT 7:32 PM PDT
Nautical Twilight 5:50 AM PDT 8:04 PM PDT
Astronomical Twilight 5:17 AM PDT 8:37 PM PDT
Moon 3:32 AM PDT 5:12 PM PDT
Length of Visible Light 13h 09m
Length of Day
12h 14m
Tomorrow will be 2m 42s shorter.
Waning Crescent, 10% of the Moon is Illuminated
Today
Waning Crescent
Sep 24
New
Oct 1
First Quarter
Oct 8
Full
Oct 15
Last Quarter

Today's Extremes

State Highs State Lows

Community

WunderPhotos

Upload Photos

1,754,968 photos uploaded!

WunderBlogs® & News

Nearby

Snow Depth

Station Depth Elevation
Leavitt Meadows 0 in 7200 ft
Burnside Lake 0 in 8139 ft
Adin Mountain 0 in 6200 ft
CSS Lab 0 in 6900 ft
Summit Meadow 0 in 9122 ft

Earthquake Activity

City Distance Mag. Time & Date
Lakeview, Oregon 99 miles 2.5 2:45 AM PDT
2014-09-20
Lakeview, Oregon 99 miles 2.5 10:12 PM PDT
2014-09-19
Lakeview, Oregon 99 miles 2.9 7:40 PM PDT
2014-09-19
Lakeview, Oregon 100 miles 3.0 10:14 AM PDT
2014-09-17
Minimum magnitude displayed is 2.5.

Coastal Water Temperatures

Place Temperature
No Stations Reporting

Nearby Weather Stations